createdAt,value
2017-06-02T00:02:04.340Z,76.20
2017-06-02T00:04:33.268Z,76.20
2017-06-02T00:07:02.236Z,76.10
2017-06-02T00:09:31.169Z,76.40
2017-06-02T00:12:00.149Z,76.60
2017-06-02T00:14:29.077Z,76.70
2017-06-02T00:16:58.012Z,76.70
2017-06-02T00:19:26.994Z,77.00
2017-06-02T00:21:55.925Z,76.80
2017-06-02T00:24:24.853Z,76.80
2017-06-02T00:26:53.901Z,76.90
2017-06-02T00:29:22.832Z,77.10
2017-06-02T00:31:51.824Z,77.10
2017-06-02T00:34:20.761Z,76.90
2017-06-02T00:36:49.689Z,76.40
2017-06-02T00:39:18.675Z,76.00
2017-06-02T00:41:47.604Z,75.90
2017-06-02T00:44:16.532Z,75.70
2017-06-02T00:46:45.559Z,75.60
2017-06-02T00:49:14.493Z,75.50
2017-06-02T00:51:43.432Z,75.70
2017-06-02T00:54:12.419Z,75.60
2017-06-02T00:56:41.548Z,75.80
2017-06-02T00:59:10.470Z,76.30
2017-06-02T01:01:39.440Z,76.50
2017-06-02T01:04:08.377Z,76.80
2017-06-02T01:06:37.350Z,76.80
2017-06-02T01:09:06.272Z,78.00
2017-06-02T01:11:35.249Z,78.10
2017-06-02T01:14:04.188Z,78.40
2017-06-02T01:16:33.253Z,78.60
2017-06-02T01:19:02.219Z,78.70
2017-06-02T01:21:31.184Z,78.90
2017-06-02T01:24:00.197Z,79.00
2017-06-02T01:26:29.120Z,78.90
2017-06-02T01:28:58.040Z,79.00
2017-06-02T01:31:27.010Z,78.70
2017-06-02T01:33:55.925Z,78.70
2017-06-02T01:36:24.905Z,78.60
2017-06-02T01:38:53.828Z,78.60
2017-06-02T01:41:22.792Z,79.20
2017-06-02T01:43:51.708Z,79.50
2017-06-02T01:46:20.685Z,79.50
2017-06-02T01:48:49.652Z,78.80
2017-06-02T01:51:18.575Z,78.90
2017-06-02T01:53:47.528Z,78.80
2017-06-02T01:56:16.527Z,78.40
2017-06-02T01:58:45.493Z,78.60
2017-06-02T02:01:14.416Z,78.70
2017-06-02T02:03:43.385Z,79.40
2017-06-02T02:06:12.376Z,78.80
2017-06-02T02:08:41.297Z,78.60
2017-06-02T02:11:10.269Z,78.40
2017-06-02T02:13:39.248Z,78.50
2017-06-02T02:16:08.213Z,78.40
2017-06-02T02:18:37.140Z,78.60
2017-06-02T02:21:06.056Z,78.90
2017-06-02T02:23:35.016Z,78.70
2017-06-02T02:26:03.940Z,78.70
2017-06-02T02:28:32.907Z,78.80
2017-06-02T02:31:01.830Z,79.00
2017-06-02T02:33:30.744Z,79.40
2017-06-02T02:35:59.712Z,79.30
2017-06-02T02:38:28.682Z,79.80
2017-06-02T02:40:57.600Z,79.70
2017-06-02T02:43:26.554Z,79.80
2017-06-02T02:45:55.516Z,80.10
2017-06-02T02:48:24.437Z,80.10
2017-06-02T02:50:53.356Z,80.00
2017-06-02T02:53:22.325Z,80.20
2017-06-02T02:55:51.289Z,80.20
2017-06-02T02:58:20.252Z,80.20
2017-06-02T03:00:49.215Z,80.10
2017-06-02T03:03:18.157Z,80.30
2017-06-02T03:05:47.148Z,80.00
2017-06-02T03:08:16.112Z,80.00
2017-06-02T03:10:45.034Z,80.00
2017-06-02T03:13:14.020Z,80.10
2017-06-02T03:15:42.975Z,80.10
2017-06-02T03:18:11.949Z,80.30
2017-06-02T03:20:40.868Z,80.20
2017-06-02T03:23:09.788Z,80.20
2017-06-02T03:25:38.748Z,80.00
2017-06-02T03:28:08.276Z,79.90
2017-06-02T03:30:37.261Z,79.90
2017-06-02T03:33:06.179Z,80.00
2017-06-02T03:35:35.097Z,79.90
2017-06-02T03:38:04.068Z,79.70
2017-06-02T03:40:32.994Z,79.50
2017-06-02T03:43:01.920Z,79.10
2017-06-02T03:45:30.929Z,78.20
2017-06-02T03:47:59.892Z,75.70
2017-06-02T03:50:29.732Z,74.40
2017-06-02T03:52:58.660Z,73.50
2017-06-02T03:55:27.628Z,72.30
2017-06-02T03:57:56.565Z,70.00
2017-06-02T04:00:25.525Z,68.10
2017-06-02T04:02:54.532Z,66.20
2017-06-02T04:05:23.533Z,64.70
2017-06-02T04:07:52.460Z,62.80
2017-06-02T04:10:21.435Z,60.90
2017-06-02T04:12:50.356Z,61.10
2017-06-02T04:15:19.285Z,61.20
2017-06-02T04:17:48.258Z,60.60
2017-06-02T04:22:52.504Z,61.40
2017-06-02T04:25:21.477Z,61.20
2017-06-02T04:27:50.400Z,63.10
2017-06-02T04:30:19.320Z,64.50
2017-06-02T04:32:48.433Z,66.50
2017-06-02T04:35:17.360Z,66.70
2017-06-02T04:37:46.309Z,66.30
2017-06-02T04:40:15.286Z,66.70
2017-06-02T04:42:44.217Z,67.60
2017-06-02T04:45:13.184Z,67.00
2017-06-02T04:47:42.116Z,67.10
2017-06-02T04:50:11.267Z,67.40
2017-06-02T04:52:40.244Z,67.10
2017-06-02T04:55:09.168Z,66.90
2017-06-02T04:57:38.092Z,66.80
2017-06-02T05:00:07.112Z,67.40
2017-06-02T05:02:36.036Z,69.00
2017-06-02T05:05:05.091Z,70.30
2017-06-02T05:07:34.092Z,70.60
2017-06-02T05:10:03.055Z,69.90
2017-06-02T05:12:32.017Z,69.20
2017-06-02T05:15:00.988Z,67.70
2017-06-02T05:17:29.928Z,67.30
2017-06-02T05:19:58.938Z,67.60
2017-06-02T05:22:27.896Z,65.20
2017-06-02T05:24:56.872Z,64.30
2017-06-02T05:27:25.832Z,65.70
2017-06-02T05:29:54.825Z,65.50
2017-06-02T05:32:23.797Z,65.00
2017-06-02T05:34:52.808Z,63.10
2017-06-02T05:37:21.805Z,64.10
2017-06-02T05:39:50.789Z,62.00
2017-06-02T05:42:19.789Z,61.40
2017-06-02T05:44:48.805Z,61.80
2017-06-02T05:47:17.829Z,62.10
2017-06-02T05:49:46.752Z,55.30
2017-06-02T05:52:15.785Z,57.10
2017-06-02T05:54:44.856Z,59.30
2017-06-02T05:57:13.807Z,58.20
2017-06-02T05:59:42.732Z,57.00
2017-06-02T06:02:11.699Z,56.30
2017-06-02T06:04:40.620Z,56.00
2017-06-02T06:07:09.592Z,57.40
2017-06-02T06:09:38.520Z,59.50
2017-06-02T06:12:07.444Z,58.50
2017-06-02T06:14:36.405Z,58.00
2017-06-02T06:17:05.397Z,56.70
2017-06-02T06:19:34.324Z,54.30
2017-06-02T06:22:03.272Z,55.80
2017-06-02T06:24:32.242Z,55.80
2017-06-02T06:27:01.251Z,54.70
2017-06-02T06:29:30.177Z,52.80
2017-06-02T06:31:59.161Z,52.80
2017-06-02T06:34:28.084Z,54.70
2017-06-02T06:36:57.008Z,53.40
2017-06-02T06:39:25.976Z,54.90
2017-06-02T06:41:54.897Z,53.80
2017-06-02T06:44:23.868Z,52.80
2017-06-02T06:46:52.881Z,52.10
2017-06-02T06:49:21.883Z,52.10
2017-06-02T06:51:50.875Z,50.80
2017-06-02T06:54:19.805Z,51.40
2017-06-02T06:56:48.863Z,50.70
2017-06-02T06:59:17.857Z,50.20
2017-06-02T07:01:46.824Z,50.40
2017-06-02T07:04:15.747Z,48.90
2017-06-02T07:06:45.041Z,48.00
2017-06-02T07:09:14.530Z,46.60
2017-06-02T07:11:43.512Z,46.70
2017-06-02T07:14:12.537Z,46.90
2017-06-02T07:16:41.520Z,46.70
2017-06-02T07:19:10.616Z,47.10
2017-06-02T07:21:39.545Z,46.00
2017-06-02T07:24:08.499Z,44.80
2017-06-02T07:26:38.104Z,46.50
2017-06-02T07:29:07.024Z,43.80
2017-06-02T07:31:36.179Z,42.10
2017-06-02T07:34:05.176Z,41.20
2017-06-02T07:36:34.180Z,39.80
2017-06-02T07:39:03.173Z,41.30
2017-06-02T07:41:32.102Z,43.20
2017-06-02T07:44:01.024Z,41.80
2017-06-02T07:46:29.990Z,40.60
2017-06-02T07:48:59.099Z,41.40
2017-06-02T07:51:28.004Z,42.30
2017-06-02T07:53:56.969Z,44.30
2017-06-02T07:56:25.933Z,41.90
2017-06-02T07:58:54.864Z,44.50
2017-06-02T08:01:23.793Z,42.80
2017-06-02T08:03:52.796Z,40.10
2017-06-02T08:06:21.788Z,38.50
2017-06-02T08:08:50.784Z,40.60
2017-06-02T08:11:19.777Z,39.40
2017-06-02T08:13:48.701Z,38.70
2017-06-02T08:16:17.624Z,40.20
2017-06-02T08:18:46.593Z,40.30
2017-06-02T08:21:15.516Z,43.00
2017-06-02T08:23:44.445Z,37.20
2017-06-02T08:26:14.188Z,40.30
2017-06-02T08:28:43.113Z,40.30
2017-06-02T08:31:12.092Z,37.40
2017-06-02T08:33:41.052Z,37.50
2017-06-02T08:36:10.017Z,40.00
2017-06-02T08:38:39.004Z,39.20
2017-06-02T08:41:07.929Z,36.80
2017-06-02T08:43:36.888Z,36.40
2017-06-02T08:46:05.856Z,37.30
2017-06-02T08:48:34.885Z,40.50
2017-06-02T08:51:03.852Z,38.90
2017-06-02T08:53:32.812Z,38.40
2017-06-02T08:56:01.753Z,36.30
2017-06-02T08:58:30.744Z,34.30
2017-06-02T09:00:59.741Z,31.40
2017-06-02T09:03:28.836Z,34.00
2017-06-02T09:05:57.821Z,33.90
2017-06-02T09:11:02.037Z,31.20
2017-06-02T09:13:31.004Z,32.70
2017-06-02T09:15:59.925Z,33.60
2017-06-02T09:18:28.900Z,33.50
2017-06-02T09:20:57.820Z,33.20
2017-06-02T09:23:26.788Z,33.30
2017-06-02T09:25:55.760Z,35.40
2017-06-02T09:28:24.681Z,33.10
2017-06-02T09:30:53.697Z,33.40
2017-06-02T09:33:22.660Z,31.50
2017-06-02T09:35:51.631Z,33.20
2017-06-02T09:38:20.576Z,34.60
2017-06-02T09:40:49.569Z,34.20
2017-06-02T09:43:18.556Z,32.30
2017-06-02T09:45:47.552Z,33.10
2017-06-02T09:48:16.476Z,33.70
2017-06-02T09:50:45.458Z,35.10
2017-06-02T09:53:14.427Z,33.80
2017-06-02T09:55:43.353Z,33.80
2017-06-02T09:58:12.427Z,32.70
2017-06-02T10:00:41.357Z,30.60
2017-06-02T10:03:10.324Z,30.20
2017-06-02T10:05:39.350Z,28.00
2017-06-02T10:08:09.164Z,28.60
2017-06-02T10:10:38.084Z,30.00
2017-06-02T10:13:07.004Z,27.70
2017-06-02T10:15:36.057Z,30.00
2017-06-02T10:18:04.980Z,28.30
2017-06-02T10:20:33.972Z,29.10
2017-06-02T10:23:02.129Z,29.00
2017-06-02T10:25:31.058Z,29.00
2017-06-02T10:27:59.552Z,29.30
2017-06-02T10:30:28.472Z,26.90
2017-06-02T10:32:57.396Z,29.20
2017-06-02T10:35:26.361Z,29.10
2017-06-02T10:37:55.284Z,28.50
2017-06-02T10:40:24.344Z,28.30
2017-06-02T10:42:53.268Z,27.70
2017-06-02T10:45:22.197Z,28.30
2017-06-02T10:47:51.221Z,29.00
2017-06-02T10:50:20.212Z,27.20
2017-06-02T10:52:49.189Z,27.00
2017-06-02T10:55:18.112Z,28.60
2017-06-02T10:57:47.085Z,27.70
2017-06-02T11:00:16.048Z,26.30
2017-06-02T11:02:45.013Z,27.10
2017-06-02T11:05:13.973Z,27.70
2017-06-02T11:07:43.043Z,25.80
2017-06-02T11:10:11.968Z,26.70
2017-06-02T11:12:40.940Z,26.40
2017-06-02T11:15:09.937Z,29.80
2017-06-02T11:17:38.904Z,25.30
2017-06-02T11:20:07.880Z,27.00
2017-06-02T11:22:36.912Z,25.70
2017-06-02T11:25:05.909Z,25.10
2017-06-02T11:27:34.881Z,27.20
2017-06-02T11:30:03.848Z,27.20
2017-06-02T11:32:32.777Z,24.70
2017-06-02T11:35:01.710Z,23.90
2017-06-02T11:37:30.764Z,24.20
2017-06-02T11:39:59.756Z,23.50
2017-06-02T11:42:28.725Z,24.80
2017-06-02T11:44:57.696Z,25.50
2017-06-02T11:47:26.613Z,25.00
2017-06-02T11:49:55.537Z,23.00
2017-06-02T11:52:24.509Z,23.10
2017-06-02T11:54:53.597Z,20.90
2017-06-02T11:57:22.560Z,22.40
2017-06-02T11:59:51.484Z,22.90
2017-06-02T12:02:20.493Z,23.30
2017-06-02T12:04:49.489Z,21.90
2017-06-02T12:07:18.480Z,20.10
2017-06-02T12:09:47.452Z,21.20
2017-06-02T12:12:16.464Z,22.70
2017-06-02T12:14:45.397Z,25.70
2017-06-02T12:17:14.372Z,25.30
2017-06-02T12:19:43.305Z,23.30
2017-06-02T12:22:12.229Z,24.50
2017-06-02T12:24:41.225Z,24.40
2017-06-02T12:27:10.161Z,25.10
2017-06-02T12:29:39.081Z,25.60
2017-06-02T12:32:08.086Z,25.60
2017-06-02T12:34:37.092Z,26.20
2017-06-02T12:37:06.088Z,25.20
2017-06-02T12:39:35.064Z,26.80
2017-06-02T12:42:04.081Z,25.80
2017-06-02T12:44:33.041Z,25.60
2017-06-02T12:47:02.033Z,25.00
2017-06-02T12:49:31.037Z,24.50
2017-06-02T12:52:00.275Z,25.80
2017-06-02T12:54:29.196Z,24.90
2017-06-02T12:56:58.469Z,24.30
2017-06-02T12:59:27.401Z,25.60
2017-06-02T13:01:56.323Z,25.30
2017-06-02T13:04:25.886Z,27.40
2017-06-02T13:06:54.812Z,26.00
2017-06-02T13:09:23.775Z,25.80
2017-06-02T13:11:52.699Z,26.50
2017-06-02T13:14:21.660Z,24.60
2017-06-02T13:16:50.744Z,24.20
2017-06-02T13:19:19.855Z,24.20
2017-06-02T13:21:48.876Z,24.50
2017-06-02T13:24:17.888Z,25.20
2017-06-02T13:26:46.882Z,25.20
2017-06-02T13:29:15.835Z,24.90
2017-06-02T13:31:45.117Z,25.40
2017-06-02T13:34:14.090Z,24.00
2017-06-02T13:36:43.011Z,23.10
2017-06-02T13:39:11.936Z,21.70
2017-06-02T13:41:40.893Z,22.70
2017-06-02T13:44:09.816Z,23.90
2017-06-02T13:46:38.788Z,23.00
2017-06-02T13:49:07.778Z,23.60
2017-06-02T13:51:36.784Z,21.30
2017-06-02T13:54:05.807Z,20.40
2017-06-02T13:56:34.733Z,20.80
2017-06-02T13:59:03.664Z,21.00
2017-06-02T14:01:32.648Z,21.30
2017-06-02T14:04:01.568Z,21.90
2017-06-02T14:06:30.491Z,18.40
2017-06-02T14:08:59.631Z,18.80
2017-06-02T14:11:28.723Z,18.30
2017-06-02T14:13:57.727Z,18.40
2017-06-02T14:16:26.908Z,18.80
2017-06-02T14:18:55.968Z,19.40
2017-06-02T14:21:24.992Z,21.10
2017-06-02T14:23:53.952Z,19.50
2017-06-02T14:26:22.953Z,17.80
2017-06-02T14:28:51.875Z,19.70
2017-06-02T14:31:20.800Z,18.60
2017-06-02T14:33:49.776Z,18.10
2017-06-02T14:36:18.701Z,18.70
2017-06-02T14:38:47.621Z,18.60
2017-06-02T14:41:16.627Z,19.00
2017-06-02T14:43:45.704Z,20.20
2017-06-02T14:46:14.636Z,18.60
2017-06-02T14:48:43.855Z,19.10
2017-06-02T14:51:12.840Z,19.20
2017-06-02T14:53:41.808Z,16.80
2017-06-02T14:56:10.736Z,17.20
2017-06-02T14:58:39.707Z,14.30
2017-06-02T15:01:08.704Z,15.70
2017-06-02T15:03:37.744Z,14.60
2017-06-02T15:06:07.018Z,14.40
2017-06-02T15:08:35.971Z,13.40
2017-06-02T15:11:04.941Z,12.50
2017-06-02T15:13:34.117Z,10.70
2017-06-02T15:16:03.104Z,10.30
2017-06-02T15:18:32.036Z,10.50
2017-06-02T15:21:01.004Z,10.30
2017-06-02T15:23:30.161Z,9.40
2017-06-02T15:25:59.403Z,9.60
2017-06-02T15:28:28.661Z,11.20
2017-06-02T15:30:57.863Z,11.40
2017-06-02T15:33:27.172Z,12.30
2017-06-02T15:35:56.625Z,12.40
2017-06-02T15:38:25.613Z,13.20
2017-06-02T15:40:54.535Z,13.60
2017-06-02T15:43:23.693Z,12.80
2017-06-02T15:45:52.621Z,13.10
2017-06-02T15:48:21.612Z,12.80
2017-06-02T15:50:50.587Z,13.50
2017-06-02T15:53:19.548Z,14.60
2017-06-02T15:55:48.482Z,13.50
2017-06-02T15:58:17.536Z,13.10
2017-06-02T16:00:46.529Z,13.90
2017-06-02T16:03:15.455Z,14.50
2017-06-02T16:05:44.602Z,14.80
2017-06-02T16:08:13.533Z,15.40
2017-06-02T16:10:44.420Z,16.70
2017-06-02T16:13:15.558Z,16.60
2017-06-02T16:15:44.580Z,15.80
2017-06-02T16:18:13.572Z,15.50
2017-06-02T16:20:42.497Z,14.00
2017-06-02T16:23:11.420Z,14.60
2017-06-02T16:25:40.541Z,14.60
2017-06-02T16:28:09.593Z,14.10
2017-06-02T16:30:38.540Z,14.00
2017-06-02T16:33:07.468Z,13.70
2017-06-02T16:35:36.519Z,13.20
2017-06-02T16:38:05.520Z,14.10
2017-06-02T16:40:34.501Z,14.30
2017-06-02T16:43:03.426Z,14.30
2017-06-02T16:45:32.352Z,15.50
2017-06-02T16:48:01.492Z,15.60
2017-06-02T16:50:30.484Z,15.70
2017-06-02T16:52:59.480Z,16.40
2017-06-02T16:55:28.473Z,17.60
2017-06-02T16:57:57.395Z,19.20
2017-06-02T17:00:26.349Z,20.90
2017-06-02T17:02:55.315Z,23.10
2017-06-02T17:05:24.240Z,22.80
2017-06-02T17:07:53.199Z,24.10
2017-06-02T17:10:22.160Z,24.50
2017-06-02T17:12:51.084Z,25.50
2017-06-02T17:15:20.061Z,25.60
2017-06-02T17:17:48.985Z,26.50
2017-06-02T17:20:17.908Z,26.30
2017-06-02T17:22:48.664Z,27.10
2017-06-02T17:25:17.625Z,28.40
2017-06-02T17:27:46.552Z,28.50
2017-06-02T17:30:15.615Z,29.00
2017-06-02T17:32:44.540Z,28.70
2017-06-02T17:35:13.465Z,29.30
2017-06-02T17:37:42.485Z,28.90
2017-06-02T17:40:11.646Z,28.90
2017-06-02T17:42:40.568Z,28.60
2017-06-02T17:45:09.492Z,28.30
2017-06-02T17:47:38.552Z,26.90
2017-06-02T17:50:07.544Z,25.90
2017-06-02T17:52:36.474Z,24.70
2017-06-02T17:55:05.448Z,23.90
2017-06-02T17:57:34.377Z,23.70
2017-06-02T18:00:03.297Z,22.90
2017-06-02T18:02:32.293Z,21.80
2017-06-02T18:05:01.218Z,22.90
2017-06-02T18:07:30.325Z,24.10
2017-06-02T18:09:59.252Z,26.60
2017-06-02T18:12:28.172Z,28.70
2017-06-02T18:14:57.271Z,30.00
2017-06-02T18:17:26.191Z,31.60
2017-06-02T18:19:55.172Z,32.00
2017-06-02T18:22:24.148Z,33.40
2017-06-02T18:24:53.077Z,34.30
2017-06-02T18:27:22.076Z,35.00
2017-06-02T18:29:51.000Z,35.90
2017-06-02T18:32:20.022Z,36.90
2017-06-02T18:34:49.111Z,37.90
2017-06-02T18:37:18.060Z,39.00
2017-06-02T18:39:47.100Z,39.40
2017-06-02T18:42:16.063Z,40.50
2017-06-02T18:44:44.993Z,41.40
2017-06-02T18:47:13.916Z,42.80
2017-06-02T18:49:42.883Z,43.60
2017-06-02T18:52:11.811Z,42.70
2017-06-02T18:54:40.742Z,43.80
2017-06-02T18:57:09.860Z,44.00
2017-06-02T18:59:38.784Z,44.40
2017-06-02T19:02:07.732Z,44.60
2017-06-02T19:04:36.725Z,45.00
2017-06-02T19:07:05.662Z,45.30
2017-06-02T19:09:34.584Z,45.50
2017-06-02T19:12:03.560Z,46.30
2017-06-02T19:14:32.492Z,46.40
2017-06-02T19:17:01.484Z,46.50
2017-06-02T19:19:30.448Z,46.50
2017-06-02T19:21:59.375Z,46.70
2017-06-02T19:24:28.416Z,46.60
2017-06-02T19:26:57.384Z,47.20
2017-06-02T19:29:26.312Z,47.60
2017-06-02T19:31:55.236Z,47.50
2017-06-02T19:34:24.200Z,47.80
2017-06-02T19:36:53.125Z,48.50
2017-06-02T19:39:22.285Z,48.30
2017-06-02T19:41:51.269Z,48.50
2017-06-02T19:44:20.200Z,48.60
2017-06-02T19:46:49.252Z,48.10
2017-06-02T19:49:18.250Z,48.10
2017-06-02T19:51:47.172Z,49.10
2017-06-02T19:54:16.232Z,48.80
2017-06-02T19:56:45.169Z,48.90
2017-06-02T19:59:14.697Z,48.40
2017-06-02T20:01:43.724Z,47.30
2017-06-02T20:04:12.656Z,46.70
2017-06-02T20:06:41.709Z,47.20
2017-06-02T20:09:10.704Z,46.60
2017-06-02T20:11:39.628Z,47.50
2017-06-02T20:14:08.608Z,47.10
2017-06-02T20:16:37.546Z,46.60
2017-06-02T20:19:06.571Z,47.20
2017-06-02T20:21:35.573Z,48.00
2017-06-02T20:24:04.496Z,48.00
2017-06-02T20:26:33.419Z,49.00
2017-06-02T20:29:02.380Z,48.00
2017-06-02T20:31:31.304Z,49.00
2017-06-02T20:34:00.424Z,47.80
2017-06-02T20:36:29.506Z,49.60
2017-06-02T20:38:58.499Z,49.30
2017-06-02T20:41:27.496Z,48.70
2017-06-02T20:43:56.477Z,48.90
2017-06-02T20:46:25.400Z,49.10
2017-06-02T20:48:54.570Z,49.90
2017-06-02T20:51:23.495Z,49.60
2017-06-02T20:53:52.425Z,49.60
2017-06-02T20:56:21.394Z,49.90
2017-06-02T20:58:50.323Z,51.30
2017-06-02T21:01:19.312Z,51.10
2017-06-02T21:03:48.509Z,51.20
2017-06-02T21:06:17.472Z,51.20
2017-06-02T21:08:46.452Z,51.00
2017-06-02T21:11:15.372Z,51.10
2017-06-02T21:13:44.315Z,52.30
2017-06-02T21:16:13.296Z,53.90
2017-06-02T21:18:42.229Z,54.80
2017-06-02T21:21:11.165Z,56.00
2017-06-02T21:23:40.140Z,57.10
2017-06-02T21:26:09.060Z,56.10
2017-06-02T21:28:38.073Z,57.20
2017-06-02T21:31:07.045Z,59.10
2017-06-02T21:33:35.959Z,60.50
2017-06-02T21:36:04.954Z,61.70
2017-06-02T21:38:33.917Z,62.30
2017-06-02T21:41:02.840Z,62.60
2017-06-02T21:43:31.800Z,62.40
2017-06-02T21:46:00.727Z,62.50
2017-06-02T21:48:29.809Z,64.50
2017-06-02T21:50:58.804Z,64.10
2017-06-02T21:53:27.796Z,64.50
2017-06-02T21:55:56.756Z,63.40
2017-06-02T21:58:25.738Z,61.90
2017-06-02T22:00:54.665Z,62.10
2017-06-02T22:03:23.583Z,64.60
2017-06-02T22:05:52.555Z,64.10
2017-06-02T22:08:21.488Z,65.00
2017-06-02T22:10:50.463Z,65.30
2017-06-02T22:13:19.388Z,65.70
2017-06-02T22:15:48.321Z,66.30
2017-06-02T22:18:17.326Z,67.20
2017-06-02T22:20:46.311Z,64.20
2017-06-02T22:23:15.231Z,64.30
2017-06-02T22:25:44.212Z,63.10
2017-06-02T22:28:13.136Z,64.60
2017-06-02T22:30:42.072Z,65.20
2017-06-02T22:33:11.040Z,65.30
2017-06-02T22:35:40.059Z,65.40
2017-06-02T22:38:08.980Z,65.80
2017-06-02T22:40:38.057Z,65.50
2017-06-02T22:43:07.038Z,65.70
2017-06-02T22:45:36.032Z,65.70
2017-06-02T22:48:04.952Z,65.30
2017-06-02T22:50:33.913Z,65.10
2017-06-02T22:53:02.917Z,65.50
2017-06-02T22:55:31.897Z,66.10
2017-06-02T22:58:00.820Z,66.20
2017-06-02T23:00:29.777Z,65.70
2017-06-02T23:02:58.781Z,65.50
2017-06-02T23:05:27.757Z,66.40
2017-06-02T23:07:56.689Z,67.00
2017-06-02T23:10:25.652Z,67.80
2017-06-02T23:12:54.621Z,67.50
2017-06-02T23:15:23.548Z,69.10
2017-06-02T23:17:52.472Z,69.30
2017-06-02T23:20:21.433Z,69.60
2017-06-02T23:22:50.419Z,70.30
2017-06-02T23:25:19.413Z,70.50
2017-06-02T23:27:48.339Z,71.10
2017-06-02T23:30:17.310Z,70.90
2017-06-02T23:32:46.233Z,71.20
2017-06-02T23:35:15.203Z,70.70
2017-06-02T23:37:44.123Z,71.00
2017-06-02T23:40:13.060Z,70.20
2017-06-02T23:42:42.029Z,70.00
2017-06-02T23:45:11.044Z,70.20
2017-06-02T23:47:39.985Z,70.40
2017-06-02T23:50:08.909Z,70.00
2017-06-02T23:52:37.880Z,69.50
2017-06-02T23:55:06.888Z,70.00
2017-06-02T23:57:35.835Z,70.40
